Time,TemperatureF,DewpointF,PressureIn,WindDirection,WindDirectionDegrees,WindSpeedMPH,WindSpeedGustMPH,Humidity,HourlyPrecipIn,Conditions,Clouds,dailyrainin,SoftwareType,DateUTC
2013-07-09 00:05:00,79.0,76.5,30.15,SSE,162,1.0,27.0,92,0.00,,,0.00,Wunderground v.1.15,2013-07-09 04:05:00,
2013-07-09 00:10:00,78.8,75.9,30.15,SSE,162,1.0,1.0,91,0.00,,,0.00,Wunderground v.1.15,2013-07-09 04:10:00,
2013-07-09 00:15:00,78.9,76.4,30.15,SSE,162,0.0,27.0,92,0.00,,,0.00,Wunderground v.1.15,2013-07-09 04:15:00,
2013-07-09 00:20:00,78.8,76.3,30.15,SSE,162,0.0,27.0,92,0.00,,,0.00,Wunderground v.1.15,2013-07-09 04:20:00,
2013-07-09 00:25:00,78.8,76.3,30.16,SSE,162,0.0,27.0,92,0.00,,,0.00,Wunderground v.1.15,2013-07-09 04:25:00,
2013-07-09 00:30:00,78.8,76.6,30.16,SSE,162,0.0,27.0,93,0.00,,,0.00,Wunderground v.1.15,2013-07-09 04:30:00,
2013-07-09 00:35:00,78.9,76.7,30.16,SSE,162,0.0,27.0,93,0.00,,,0.00,Wunderground v.1.15,2013-07-09 04:35:00,
2013-07-09 00:40:00,78.9,76.7,30.16,SSE,162,0.0,27.0,93,0.00,,,0.00,Wunderground v.1.15,2013-07-09 04:40:00,
2013-07-09 00:50:00,78.8,76.6,30.16,SSE,162,0.0,27.0,93,0.00,,,0.00,Wunderground v.1.15,2013-07-09 04:50:00,
2013-07-09 00:55:00,78.6,76.4,30.16,SSE,162,0.0,27.0,93,0.00,,,0.00,Wunderground v.1.15,2013-07-09 04:55:00,
2013-07-09 01:05:00,78.5,76.3,30.16,SSE,162,0.0,27.0,93,0.00,,,0.00,Wunderground v.1.15,2013-07-09 05:05:00,
2013-07-09 01:10:00,78.6,76.4,30.15,SSE,162,0.0,27.0,93,0.00,,,0.00,Wunderground v.1.15,2013-07-09 05:10:00,
2013-07-09 01:20:00,78.7,76.5,30.16,SSE,162,0.0,27.0,93,0.00,,,0.00,Wunderground v.1.15,2013-07-09 05:20:00,
2013-07-09 01:25:00,78.7,76.5,30.16,SSE,162,0.0,27.0,93,0.00,,,0.00,Wunderground v.1.15,2013-07-09 05:25:00,
2013-07-09 01:30:00,78.7,76.5,30.15,SSE,162,0.0,27.0,93,0.00,,,0.00,Wunderground v.1.15,2013-07-09 05:30:00,
2013-07-09 01:35:00,78.6,76.4,30.15,SSE,162,0.0,27.0,93,0.00,,,0.00,Wunderground v.1.15,2013-07-09 05:35:00,
2013-07-09 01:45:00,78.5,76.3,30.14,SSE,162,0.0,27.0,93,0.00,,,0.00,Wunderground v.1.15,2013-07-09 05:45:00,
2013-07-09 01:50:00,78.5,76.6,30.14,SSE,162,0.0,27.0,94,0.00,,,0.00,Wunderground v.1.15,2013-07-09 05:50:00,
2013-07-09 02:00:00,78.8,76.9,30.13,SSE,162,0.0,27.0,94,0.00,,,0.00,Wunderground v.1.15,2013-07-09 06:00:00,
2013-07-09 02:10:00,78.9,77.0,30.13,SSE,162,0.0,27.0,94,0.00,,,0.00,Wunderground v.1.15,2013-07-09 06:10:00,
2013-07-09 02:20:00,79.0,77.1,30.13,SSE,162,0.0,27.0,94,0.00,,,0.00,Wunderground v.1.15,2013-07-09 06:20:00,
2013-07-09 02:25:00,79.0,77.1,30.13,SSE,162,0.0,27.0,94,0.00,,,0.00,Wunderground v.1.15,2013-07-09 06:25:00,
2013-07-09 02:35:00,78.9,77.0,30.12,SSE,162,0.0,27.0,94,0.00,,,0.00,Wunderground v.1.15,2013-07-09 06:35:00,
2013-07-09 02:40:00,78.8,76.9,30.12,SSE,162,0.0,27.0,94,0.00,,,0.00,Wunderground v.1.15,2013-07-09 06:40:00,
2013-07-09 02:50:00,78.7,77.1,30.12,SSE,162,0.0,27.0,95,0.00,,,0.00,Wunderground v.1.15,2013-07-09 06:50:00,
2013-07-09 02:55:00,78.7,77.1,30.12,SSE,162,0.0,27.0,95,0.00,,,0.00,Wunderground v.1.15,2013-07-09 06:55:00,
2013-07-09 03:05:00,78.5,76.9,30.12,SSE,162,0.0,27.0,95,0.00,,,0.00,Wunderground v.1.15,2013-07-09 07:05:00,
2013-07-09 03:10:00,78.6,77.0,30.12,SSE,162,0.0,27.0,95,0.00,,,0.00,Wunderground v.1.15,2013-07-09 07:10:00,
2013-07-09 03:20:00,78.5,76.9,30.12,SSE,162,0.0,27.0,95,0.00,,,0.00,Wunderground v.1.15,2013-07-09 07:20:00,
2013-07-09 03:25:00,78.4,76.8,30.12,SSE,162,0.0,27.0,95,0.00,,,0.00,Wunderground v.1.15,2013-07-09 07:25:00,
2013-07-09 03:30:00,78.8,77.6,30.12,SSE,162,0.0,27.0,96,0.00,,,0.00,Wunderground v.1.15,2013-07-09 07:30:00,
2013-07-09 03:35:00,78.7,77.5,30.12,SSE,162,0.0,27.0,96,0.00,,,0.00,Wunderground v.1.15,2013-07-09 07:35:00,
2013-07-09 03:45:00,78.9,77.7,30.12,SSE,154,0.0,27.0,96,0.00,,,0.00,Wunderground v.1.15,2013-07-09 07:45:00,
2013-07-09 03:55:00,78.7,77.5,30.12,North,5,0.0,27.0,96,0.00,,,0.00,Wunderground v.1.15,2013-07-09 07:55:00,
2013-07-09 04:00:00,78.5,77.3,30.12,North,5,0.0,27.0,96,0.00,,,0.00,Wunderground v.1.15,2013-07-09 08:00:00,
2013-07-09 04:05:00,78.4,77.2,30.12,North,11,1.0,27.0,96,0.00,,,0.00,Wunderground v.1.15,2013-07-09 08:05:00,
2013-07-09 04:10:00,78.5,77.3,30.12,North,9,1.0,1.0,96,0.00,,,0.00,Wunderground v.1.15,2013-07-09 08:10:00,
2013-07-09 04:20:00,78.6,77.4,30.12,North,5,0.0,27.0,96,0.00,,,0.00,Wunderground v.1.15,2013-07-09 08:20:00,
2013-07-09 04:25:00,78.7,77.5,30.12,North,5,0.0,27.0,96,0.00,,,0.00,Wunderground v.1.15,2013-07-09 08:25:00,
2013-07-09 04:35:00,78.7,77.5,30.12,North,5,0.0,27.0,96,0.00,,,0.00,Wunderground v.1.15,2013-07-09 08:35:00,
2013-07-09 04:40:00,78.6,77.4,30.12,North,5,0.0,27.0,96,0.00,,,0.00,Wunderground v.1.15,2013-07-09 08:40:00,
2013-07-09 04:50:00,78.4,77.2,30.13,North,5,0.0,27.0,96,0.00,,,0.00,Wunderground v.1.15,2013-07-09 08:50:00,
2013-07-09 04:55:00,78.4,77.2,30.13,North,5,0.0,27.0,96,0.00,,,0.00,Wunderground v.1.15,2013-07-09 08:55:00,
2013-07-09 05:05:00,78.3,77.1,30.13,North,5,0.0,27.0,96,0.00,,,0.00,Wunderground v.1.15,2013-07-09 09:05:00,
2013-07-09 05:10:00,78.2,77.0,30.13,North,5,0.0,27.0,96,0.00,,,0.00,Wunderground v.1.15,2013-07-09 09:10:00,
2013-07-09 05:20:00,78.2,77.0,30.13,North,5,0.0,27.0,96,0.00,,,0.00,Wunderground v.1.15,2013-07-09 09:20:00,
2013-07-09 05:30:00,78.2,77.3,30.14,North,5,0.0,27.0,97,0.00,,,0.00,Wunderground v.1.15,2013-07-09 09:30:00,
2013-07-09 05:35:00,78.3,77.4,30.14,North,5,0.0,27.0,97,0.00,,,0.00,Wunderground v.1.15,2013-07-09 09:35:00,
2013-07-09 05:45:00,78.4,77.5,30.14,North,5,0.0,27.0,97,0.00,,,0.00,Wunderground v.1.15,2013-07-09 09:45:00,
2013-07-09 05:50:00,78.4,77.5,30.14,North,5,0.0,27.0,97,0.00,,,0.00,Wunderground v.1.15,2013-07-09 09:50:00,
2013-07-09 06:00:00,78.4,77.5,30.14,North,5,0.0,27.0,97,0.00,,,0.00,Wunderground v.1.15,2013-07-09 10:00:00,
2013-07-09 06:05:00,78.4,77.5,30.14,North,5,0.0,27.0,97,0.00,,,0.00,Wunderground v.1.15,2013-07-09 10:05:00,
2013-07-09 06:10:00,78.4,77.5,30.14,North,5,0.0,27.0,97,0.00,,,0.00,Wunderground v.1.15,2013-07-09 10:10:00,
2013-07-09 06:20:00,78.4,77.5,30.14,North,5,0.0,27.0,97,0.00,,,0.00,Wunderground v.1.15,2013-07-09 10:20:00,
2013-07-09 06:25:00,78.4,77.5,30.14,North,5,0.0,27.0,97,0.00,,,0.00,Wunderground v.1.15,2013-07-09 10:25:00,
2013-07-09 06:35:00,78.0,77.1,30.14,North,5,0.0,27.0,97,0.00,,,0.00,Wunderground v.1.15,2013-07-09 10:35:00,
2013-07-09 06:40:00,77.9,77.0,30.14,SW,234,0.0,27.0,97,0.00,,,0.00,Wunderground v.1.15,2013-07-09 10:40:00,
2013-07-09 06:50:00,77.9,77.0,30.15,SW,234,0.0,27.0,97,0.00,,,0.00,Wunderground v.1.15,2013-07-09 10:50:00,
2013-07-09 06:55:00,77.8,76.9,30.14,SW,234,0.0,27.0,97,0.00,,,0.00,Wunderground v.1.15,2013-07-09 10:55:00,
2013-07-09 07:00:00,77.8,76.9,30.14,SW,234,0.0,27.0,97,0.00,,,0.00,Wunderground v.1.15,2013-07-09 11:00:00,
2013-07-09 07:10:00,77.8,76.9,30.14,SW,234,0.0,27.0,97,0.00,,,0.00,Wunderground v.1.15,2013-07-09 11:10:00,
2013-07-09 07:15:00,77.8,76.9,30.14,SW,234,0.0,27.0,97,0.00,,,0.00,Wunderground v.1.15,2013-07-09 11:15:00,
2013-07-09 07:20:00,77.7,76.8,30.15,SW,234,0.0,27.0,97,0.00,,,0.00,Wunderground v.1.15,2013-07-09 11:20:00,
2013-07-09 07:25:00,77.7,76.8,30.14,SW,234,0.0,27.0,97,0.00,,,0.00,Wunderground v.1.15,2013-07-09 11:25:00,
2013-07-09 07:35:00,78.1,77.5,30.15,SW,234,0.0,27.0,98,0.00,,,0.00,Wunderground v.1.15,2013-07-09 11:35:00,
2013-07-09 07:40:00,78.5,77.9,30.15,SW,234,0.0,27.0,98,0.00,,,0.00,Wunderground v.1.15,2013-07-09 11:40:00,
2013-07-09 07:50:00,79.0,78.1,30.15,SW,234,0.0,27.0,97,0.00,,,0.00,Wunderground v.1.15,2013-07-09 11:50:00,
2013-07-09 07:55:00,79.2,78.3,30.15,SW,234,0.0,27.0,97,0.00,,,0.00,Wunderground v.1.15,2013-07-09 11:55:00,
2013-07-09 08:05:00,79.5,78.6,30.15,SW,234,0.0,27.0,97,0.00,,,0.00,Wunderground v.1.15,2013-07-09 12:05:00,
2013-07-09 08:10:00,79.6,78.4,30.15,SW,234,0.0,27.0,96,0.00,,,0.00,Wunderground v.1.15,2013-07-09 12:10:00,
2013-07-09 08:20:00,79.9,78.7,30.16,West,274,0.0,27.0,96,0.00,,,0.00,Wunderground v.1.15,2013-07-09 12:20:00,
2013-07-09 08:25:00,79.9,78.3,30.16,WNW,294,0.0,27.0,95,0.00,,,0.00,Wunderground v.1.15,2013-07-09 12:25:00,
2013-07-09 08:30:00,79.9,78.3,30.16,NW,317,0.0,27.0,95,0.00,,,0.00,Wunderground v.1.15,2013-07-09 12:30:00,
2013-07-09 08:40:00,80.1,78.5,30.16,North,350,0.0,27.0,95,0.00,,,0.00,Wunderground v.1.15,2013-07-09 12:40:00,
2013-07-09 08:45:00,80.2,78.6,30.16,NNW,348,0.0,27.0,95,0.00,,,0.00,Wunderground v.1.15,2013-07-09 12:45:00,
2013-07-09 08:50:00,80.0,78.4,30.17,North,11,0.0,27.0,95,0.00,,,0.00,Wunderground v.1.15,2013-07-09 12:50:00,
2013-07-09 09:00:00,79.9,78.3,30.17,NNE,33,0.0,27.0,95,0.00,,,0.00,Wunderground v.1.15,2013-07-09 13:00:00,
2013-07-09 09:05:00,80.1,78.5,30.17,NNE,33,0.0,27.0,95,0.00,,,0.00,Wunderground v.1.15,2013-07-09 13:05:00,
2013-07-09 09:10:00,80.1,78.2,30.18,ENE,59,0.0,27.0,94,0.00,,,0.00,Wunderground v.1.15,2013-07-09 13:10:00,
2013-07-09 09:20:00,80.0,78.1,30.18,ENE,61,2.0,27.0,94,0.00,,,0.00,Wunderground v.1.15,2013-07-09 13:20:00,
2013-07-09 09:25:00,80.0,77.8,30.18,ENE,73,5.0,27.0,93,0.00,,,0.00,Wunderground v.1.15,2013-07-09 13:25:00,
2013-07-09 09:35:00,79.9,78.0,30.18,SE,132,4.0,27.0,94,0.00,,,0.00,Wunderground v.1.15,2013-07-09 13:35:00,
2013-07-09 09:40:00,79.8,77.9,30.18,South,170,1.0,1.0,94,0.00,,,0.00,Wunderground v.1.15,2013-07-09 13:40:00,
2013-07-09 09:50:00,79.9,77.7,30.18,SE,140,0.0,27.0,93,0.00,,,0.00,Wunderground v.1.15,2013-07-09 13:50:00,
2013-07-09 09:55:00,79.9,77.7,30.18,ESE,112,0.0,27.0,93,0.00,,,0.00,Wunderground v.1.15,2013-07-09 13:55:00,
2013-07-09 10:00:00,80.0,77.8,30.18,ESE,123,0.0,27.0,93,0.00,,,0.00,Wunderground v.1.15,2013-07-09 14:00:00,
2013-07-09 10:10:00,80.2,77.7,30.19,ESE,123,0.0,27.0,92,0.00,,,0.00,Wunderground v.1.15,2013-07-09 14:10:00,
2013-07-09 10:15:00,80.4,77.9,30.18,North,5,0.0,27.0,92,0.00,,,0.00,Wunderground v.1.15,2013-07-09 14:15:00,
2013-07-09 10:25:00,81.2,78.3,30.18,NNE,17,0.0,27.0,91,0.00,,,0.00,Wunderground v.1.15,2013-07-09 14:25:00,
2013-07-09 10:35:00,81.6,78.4,30.18,NNE,19,0.0,27.0,90,0.00,,,0.00,Wunderground v.1.15,2013-07-09 14:35:00,
2013-07-09 10:40:00,81.4,77.8,30.18,NW,319,0.0,27.0,89,0.00,,,0.00,Wunderground v.1.15,2013-07-09 14:40:00,
2013-07-09 10:50:00,81.7,78.1,30.19,North,355,0.0,27.0,89,0.00,,,0.00,Wunderground v.1.15,2013-07-09 14:50:00,
2013-07-09 10:55:00,81.6,78.0,30.19,ENE,76,0.0,27.0,89,0.00,,,0.00,Wunderground v.1.15,2013-07-09 14:55:00,
2013-07-09 11:05:00,81.7,77.8,30.18,NW,310,0.0,27.0,88,0.00,,,0.00,Wunderground v.1.15,2013-07-09 15:05:00,
2013-07-09 11:10:00,82.0,78.1,30.19,NW,310,0.0,27.0,88,0.00,,,0.00,Wunderground v.1.15,2013-07-09 15:10:00,
2013-07-09 11:20:00,83.1,78.5,30.19,NW,310,0.0,27.0,86,0.00,,,0.00,Wunderground v.1.15,2013-07-09 15:20:00,
2013-07-09 11:25:00,83.0,78.4,30.19,NW,313,0.0,27.0,86,0.00,,,0.00,Wunderground v.1.15,2013-07-09 15:25:00,
2013-07-09 11:30:00,82.9,78.3,30.19,NNW,327,0.0,27.0,86,0.00,,,0.00,Wunderground v.1.15,2013-07-09 15:30:00,
2013-07-09 11:40:00,82.8,78.5,30.19,SSW,207,1.0,1.0,87,0.00,,,0.00,Wunderground v.1.15,2013-07-09 15:40:00,
2013-07-09 11:45:00,82.7,78.4,30.19,SSW,192,1.0,2.0,87,0.00,,,0.00,Wunderground v.1.15,2013-07-09 15:45:00,
2013-07-09 11:50:00,82.5,77.9,30.19,SSW,193,1.0,1.0,86,0.00,,,0.00,Wunderground v.1.15,2013-07-09 15:50:00,
2013-07-09 12:00:00,81.9,77.6,30.20,South,187,1.0,27.0,87,0.00,,,0.00,Wunderground v.1.15,2013-07-09 16:00:00,
2013-07-09 12:05:00,81.8,77.9,30.20,South,186,1.0,27.0,88,0.00,,,0.00,Wunderground v.1.15,2013-07-09 16:05:00,
2013-07-09 12:10:00,82.5,78.6,30.19,SSW,200,1.0,1.0,88,0.00,,,0.00,Wunderground v.1.15,2013-07-09 16:10:00,
2013-07-09 12:20:00,83.7,79.1,30.19,SSW,196,3.0,27.0,86,0.00,,,0.00,Wunderground v.1.15,2013-07-09 16:20:00,
2013-07-09 12:25:00,84.1,79.1,30.19,SSW,192,3.0,27.0,85,0.00,,,0.00,Wunderground v.1.15,2013-07-09 16:25:00,
2013-07-09 12:35:00,84.1,78.4,30.19,South,172,4.0,27.0,83,0.00,,,0.00,Wunderground v.1.15,2013-07-09 16:35:00,
2013-07-09 12:40:00,84.4,78.7,30.19,SSW,193,3.0,27.0,83,0.00,,,0.00,Wunderground v.1.15,2013-07-09 16:40:00,
2013-07-09 12:50:00,84.6,78.5,30.19,SSW,196,4.0,27.0,82,0.00,,,0.00,Wunderground v.1.15,2013-07-09 16:50:00,
2013-07-09 12:55:00,83.8,77.3,30.19,SSE,166,3.0,27.0,81,0.00,,,0.00,Wunderground v.1.15,2013-07-09 16:55:00,
2013-07-09 13:00:00,83.1,77.4,30.19,South,175,2.0,27.0,83,0.00,,,0.00,Wunderground v.1.15,2013-07-09 17:00:00,
2013-07-09 13:10:00,84.1,78.4,30.18,South,187,3.0,27.0,83,0.00,,,0.00,Wunderground v.1.15,2013-07-09 17:10:00,
2013-07-09 13:15:00,84.0,77.5,30.18,South,180,4.0,27.0,81,0.00,,,0.00,Wunderground v.1.15,2013-07-09 17:15:00,
2013-07-09 13:20:00,84.2,78.5,30.18,SSW,207,4.0,27.0,83,0.00,,,0.00,Wunderground v.1.15,2013-07-09 17:20:00,
2013-07-09 13:30:00,84.1,78.0,30.18,SE,141,3.0,3.0,82,0.00,,,0.00,Wunderground v.1.15,2013-07-09 17:30:00,
2013-07-09 13:35:00,84.2,78.1,30.18,South,175,3.0,27.0,82,0.00,,,0.00,Wunderground v.1.15,2013-07-09 17:35:00,
2013-07-09 13:40:00,84.4,78.3,30.18,SSW,212,4.0,4.0,82,0.00,,,0.00,Wunderground v.1.15,2013-07-09 17:40:00,
2013-07-09 13:50:00,84.6,78.1,30.18,SSE,165,5.0,27.0,81,0.00,,,0.00,Wunderground v.1.15,2013-07-09 17:50:00,
2013-07-09 13:55:00,84.4,78.3,30.18,SSE,167,3.0,27.0,82,0.00,,,0.00,Wunderground v.1.15,2013-07-09 17:55:00,
2013-07-09 14:05:00,85.0,78.5,30.17,SSE,163,4.0,5.0,81,0.00,,,0.00,Wunderground v.1.15,2013-07-09 18:05:00,
2013-07-09 14:10:00,85.2,78.7,30.17,South,188,5.0,27.0,81,0.00,,,0.00,Wunderground v.1.15,2013-07-09 18:10:00,
2013-07-09 14:20:00,85.2,78.7,30.17,SSW,192,5.0,27.0,81,0.00,,,0.00,Wunderground v.1.15,2013-07-09 18:20:00,
2013-07-09 14:25:00,84.8,78.3,30.17,South,186,5.0,27.0,81,0.00,,,0.00,Wunderground v.1.15,2013-07-09 18:25:00,
2013-07-09 14:30:00,85.0,78.5,30.17,South,173,6.0,27.0,81,0.00,,,0.00,Wunderground v.1.15,2013-07-09 18:30:00,
2013-07-09 14:40:00,85.2,78.7,30.16,SSE,161,7.0,7.0,81,0.00,,,0.00,Wunderground v.1.15,2013-07-09 18:40:00,
2013-07-09 14:45:00,85.2,78.3,30.16,SSW,194,7.0,12.0,80,0.00,,,0.00,Wunderground v.1.15,2013-07-09 18:45:00,
2013-07-09 14:50:00,85.2,78.7,30.16,SSW,194,7.0,7.0,81,0.00,,,0.00,Wunderground v.1.15,2013-07-09 18:50:00,
2013-07-09 14:55:00,85.1,78.2,30.16,South,186,8.0,9.0,80,0.00,,,0.00,Wunderground v.1.15,2013-07-09 18:55:00,
2013-07-09 15:05:00,85.2,78.3,30.15,SSW,194,8.0,9.0,80,0.00,,,0.00,Wunderground v.1.15,2013-07-09 19:05:00,
2013-07-09 15:10:00,85.2,78.3,30.15,SSW,205,8.0,8.0,80,0.00,,,0.00,Wunderground v.1.15,2013-07-09 19:10:00,
2013-07-09 15:20:00,84.9,78.4,30.15,South,191,8.0,27.0,81,0.00,,,0.00,Wunderground v.1.15,2013-07-09 19:20:00,
2013-07-09 15:25:00,84.8,78.3,30.15,SSW,194,8.0,27.0,81,0.00,,,0.00,Wunderground v.1.15,2013-07-09 19:25:00,
2013-07-09 15:35:00,84.7,77.5,30.14,SSE,168,8.0,8.0,79,0.00,,,0.00,Wunderground v.1.15,2013-07-09 19:35:00,
2013-07-09 15:40:00,84.8,77.9,30.14,SW,220,8.0,8.0,80,0.00,,,0.00,Wunderground v.1.15,2013-07-09 19:40:00,
2013-07-09 15:50:00,84.6,77.4,30.14,SSW,198,8.0,27.0,79,0.00,,,0.00,Wunderground v.1.15,2013-07-09 19:50:00,
2013-07-09 15:55:00,84.7,77.5,30.14,SSW,194,8.0,27.0,79,0.00,,,0.00,Wunderground v.1.15,2013-07-09 19:55:00,
2013-07-09 16:05:00,84.7,77.5,30.14,SW,221,9.0,27.0,79,0.00,,,0.00,Wunderground v.1.15,2013-07-09 20:05:00,
2013-07-09 16:10:00,85.0,77.8,30.13,SSW,200,8.0,27.0,79,0.00,,,0.00,Wunderground v.1.15,2013-07-09 20:10:00,
2013-07-09 16:15:00,85.2,77.6,30.13,SSW,203,8.0,27.0,78,0.00,,,0.00,Wunderground v.1.15,2013-07-09 20:15:00,
2013-07-09 16:20:00,85.3,77.7,30.13,SSW,205,8.0,27.0,78,0.00,,,0.00,Wunderground v.1.15,2013-07-09 20:20:00,
2013-07-09 16:30:00,85.2,77.6,30.13,SSW,209,8.0,27.0,78,0.00,,,0.00,Wunderground v.1.15,2013-07-09 20:30:00,
2013-07-09 16:35:00,84.9,77.3,30.13,SSW,198,8.0,27.0,78,0.00,,,0.00,Wunderground v.1.15,2013-07-09 20:35:00,
2013-07-09 16:40:00,85.2,77.6,30.13,SSW,205,8.0,27.0,78,0.00,,,0.00,Wunderground v.1.15,2013-07-09 20:40:00,
2013-07-09 16:50:00,84.7,77.1,30.12,SW,222,8.0,8.0,78,0.00,,,0.00,Wunderground v.1.15,2013-07-09 20:50:00,
2013-07-09 16:55:00,84.8,77.2,30.12,SSW,195,9.0,11.0,78,0.00,,,0.00,Wunderground v.1.15,2013-07-09 20:55:00,
2013-07-09 17:05:00,85.3,77.7,30.11,SW,221,9.0,27.0,78,0.00,,,0.00,Wunderground v.1.15,2013-07-09 21:05:00,
2013-07-09 17:10:00,85.4,77.8,30.11,SSW,213,8.0,27.0,78,0.00,,,0.00,Wunderground v.1.15,2013-07-09 21:10:00,
2013-07-09 17:20:00,85.4,77.0,30.12,SSW,192,8.0,27.0,76,0.00,,,0.00,Wunderground v.1.15,2013-07-09 21:20:00,
2013-07-09 17:25:00,85.5,77.1,30.11,SW,227,8.0,27.0,76,0.00,,,0.00,Wunderground v.1.15,2013-07-09 21:25:00,
2013-07-09 17:30:00,85.0,77.0,30.11,SW,215,8.0,8.0,77,0.00,,,0.00,Wunderground v.1.15,2013-07-09 21:30:00,
2013-07-09 17:40:00,84.3,76.7,30.11,SW,218,8.0,8.0,78,0.00,,,0.00,Wunderground v.1.15,2013-07-09 21:40:00,
2013-07-09 17:45:00,84.3,76.7,30.10,SSW,212,9.0,9.0,78,0.00,,,0.00,Wunderground v.1.15,2013-07-09 21:45:00,
2013-07-09 17:55:00,84.8,76.8,30.10,SSW,211,9.0,27.0,77,0.00,,,0.00,Wunderground v.1.15,2013-07-09 21:55:00,
2013-07-09 18:00:00,84.8,76.8,30.10,SSW,195,9.0,27.0,77,0.00,,,0.00,Wunderground v.1.15,2013-07-09 22:00:00,
2013-07-09 18:05:00,84.4,76.8,30.10,SSW,205,9.0,27.0,78,0.00,,,0.00,Wunderground v.1.15,2013-07-09 22:05:00,
2013-07-09 18:15:00,84.2,76.2,30.10,SW,223,8.0,27.0,77,0.00,,,0.00,Wunderground v.1.15,2013-07-09 22:15:00,
2013-07-09 18:20:00,84.3,76.3,30.10,SSW,197,8.0,27.0,77,0.00,,,0.00,Wunderground v.1.15,2013-07-09 22:20:00,
2013-07-09 18:30:00,84.5,76.1,30.10,SSW,211,9.0,27.0,76,0.00,,,0.00,Wunderground v.1.15,2013-07-09 22:30:00,
2013-07-09 18:35:00,84.6,76.6,30.10,SSW,192,10.0,27.0,77,0.00,,,0.00,Wunderground v.1.15,2013-07-09 22:35:00,
2013-07-09 18:40:00,84.7,76.3,30.09,SW,228,9.0,27.0,76,0.00,,,0.00,Wunderground v.1.15,2013-07-09 22:40:00,
2013-07-09 18:50:00,84.4,76.4,30.09,SW,219,10.0,10.0,77,0.00,,,0.00,Wunderground v.1.15,2013-07-09 22:50:00,
2013-07-09 18:55:00,84.3,76.3,30.10,SW,229,9.0,11.0,77,0.00,,,0.00,Wunderground v.1.15,2013-07-09 22:55:00,
2013-07-09 19:05:00,84.4,76.8,30.09,SSW,213,8.0,27.0,78,0.00,,,0.00,Wunderground v.1.15,2013-07-09 23:05:00,
2013-07-09 19:10:00,84.2,76.2,30.09,SW,215,8.0,27.0,77,0.00,,,0.00,Wunderground v.1.15,2013-07-09 23:10:00,
2013-07-09 19:20:00,83.8,75.8,30.09,SSW,206,9.0,27.0,77,0.00,,,0.00,Wunderground v.1.15,2013-07-09 23:20:00,
2013-07-09 19:25:00,83.6,76.0,30.09,SW,227,9.0,27.0,78,0.00,,,0.00,Wunderground v.1.15,2013-07-09 23:25:00,
2013-07-09 19:35:00,83.6,76.0,30.09,SW,220,8.0,27.0,78,0.00,,,0.00,Wunderground v.1.15,2013-07-09 23:35:00,
2013-07-09 19:40:00,83.6,75.6,30.09,SSW,205,8.0,27.0,77,0.00,,,0.00,Wunderground v.1.15,2013-07-09 23:40:00,
2013-07-09 19:45:00,83.4,75.8,30.09,SW,218,9.0,27.0,78,0.00,,,0.00,Wunderground v.1.15,2013-07-09 23:45:00,
2013-07-09 19:50:00,83.2,75.6,30.09,SSW,202,8.0,27.0,78,0.00,,,0.00,Wunderground v.1.15,2013-07-09 23:50:00,
2013-07-09 20:00:00,83.3,75.7,30.10,WSW,240,8.0,8.0,78,0.00,,,0.00,Wunderground v.1.15,2013-07-10 00:00:00,
2013-07-09 20:05:00,83.2,76.0,30.10,SSW,205,7.0,27.0,79,0.00,,,0.00,Wunderground v.1.15,2013-07-10 00:05:00,
2013-07-09 20:15:00,82.9,75.7,30.09,SSW,198,7.0,8.0,79,0.00,,,0.00,Wunderground v.1.15,2013-07-10 00:15:00,
2013-07-09 20:20:00,82.9,75.7,30.09,SSW,202,7.0,27.0,79,0.00,,,0.00,Wunderground v.1.15,2013-07-10 00:20:00,
2013-07-09 20:25:00,82.9,75.7,30.10,SW,216,7.0,27.0,79,0.00,,,0.00,Wunderground v.1.15,2013-07-10 00:25:00,
2013-07-09 20:35:00,82.7,76.3,30.09,SW,225,6.0,27.0,81,0.00,,,0.00,Wunderground v.1.15,2013-07-10 00:35:00,
2013-07-09 20:40:00,82.5,75.7,30.09,SW,221,7.0,27.0,80,0.00,,,0.00,Wunderground v.1.15,2013-07-10 00:40:00,
2013-07-09 20:50:00,82.4,75.6,30.10,SW,223,6.0,27.0,80,0.00,,,0.00,Wunderground v.1.15,2013-07-10 00:50:00,
2013-07-09 20:55:00,82.5,76.1,30.09,SW,223,7.0,27.0,81,0.00,,,0.00,Wunderground v.1.15,2013-07-10 00:55:00,
2013-07-09 21:05:00,82.3,75.5,30.09,SW,216,7.0,27.0,80,0.00,,,0.00,Wunderground v.1.15,2013-07-10 01:05:00,
2013-07-09 21:10:00,82.3,75.9,30.09,SW,217,7.0,27.0,81,0.00,,,0.00,Wunderground v.1.15,2013-07-10 01:10:00,
2013-07-09 21:15:00,82.3,75.9,30.09,SW,219,8.0,27.0,81,0.00,,,0.00,Wunderground v.1.15,2013-07-10 01:15:00,
2013-07-09 21:25:00,82.2,75.8,30.09,SW,236,8.0,27.0,81,0.00,,,0.00,Wunderground v.1.15,2013-07-10 01:25:00,
2013-07-09 21:30:00,82.1,75.3,30.09,SW,226,7.0,27.0,80,0.00,,,0.00,Wunderground v.1.15,2013-07-10 01:30:00,
2013-07-09 21:35:00,82.1,75.3,30.09,WSW,251,7.0,27.0,80,0.00,,,0.00,Wunderground v.1.15,2013-07-10 01:35:00,
2013-07-09 21:45:00,82.1,75.3,30.10,WSW,241,7.0,27.0,80,0.00,,,0.00,Wunderground v.1.15,2013-07-10 01:45:00,
2013-07-09 21:50:00,82.2,75.8,30.10,SSW,211,7.0,27.0,81,0.00,,,0.00,Wunderground v.1.15,2013-07-10 01:50:00,
2013-07-09 21:55:00,82.1,75.3,30.10,SW,230,7.0,27.0,80,0.00,,,0.00,Wunderground v.1.15,2013-07-10 01:55:00,
2013-07-09 22:05:00,81.9,75.1,30.10,WSW,241,6.0,27.0,80,0.00,,,0.00,Wunderground v.1.15,2013-07-10 02:05:00,
2013-07-09 22:10:00,82.0,75.2,30.10,SW,230,7.0,7.0,80,0.00,,,0.00,Wunderground v.1.15,2013-07-10 02:10:00,
2013-07-09 22:20:00,82.1,75.7,30.11,WSW,244,6.0,6.0,81,0.00,,,0.00,Wunderground v.1.15,2013-07-10 02:20:00,
2013-07-09 22:25:00,81.9,75.5,30.11,WSW,244,6.0,27.0,81,0.00,,,0.00,Wunderground v.1.15,2013-07-10 02:25:00,
2013-07-09 22:35:00,81.8,75.8,30.12,SW,234,5.0,27.0,82,0.00,,,0.00,Wunderground v.1.15,2013-07-10 02:35:00,
2013-07-09 22:40:00,81.7,76.0,30.12,SSW,213,2.0,2.0,83,0.00,,,0.00,Wunderground v.1.15,2013-07-10 02:40:00,
2013-07-09 22:50:00,81.5,75.5,30.12,SSW,209,1.0,27.0,82,0.00,,,0.00,Wunderground v.1.15,2013-07-10 02:50:00,
2013-07-09 22:55:00,81.6,75.9,30.12,SW,235,2.0,27.0,83,0.00,,,0.00,Wunderground v.1.15,2013-07-10 02:55:00,
2013-07-09 23:00:00,81.5,75.8,30.12,WSW,250,1.0,1.0,83,0.00,,,0.00,Wunderground v.1.15,2013-07-10 03:00:00,
2013-07-09 23:10:00,81.4,75.7,30.12,SW,221,1.0,1.0,83,0.00,,,0.00,Wunderground v.1.15,2013-07-10 03:10:00,
2013-07-09 23:15:00,81.5,75.8,30.12,SW,223,0.0,27.0,83,0.00,,,0.00,Wunderground v.1.15,2013-07-10 03:15:00,
2013-07-09 23:25:00,81.5,75.5,30.12,WSW,241,2.0,27.0,82,0.00,,,0.00,Wunderground v.1.15,2013-07-10 03:25:00,
2013-07-09 23:30:00,81.4,75.4,30.12,SW,223,1.0,1.0,82,0.00,,,0.00,Wunderground v.1.15,2013-07-10 03:30:00,
2013-07-09 23:35:00,81.4,75.7,30.12,SW,223,0.0,27.0,83,0.00,,,0.00,Wunderground v.1.15,2013-07-10 03:35:00,
2013-07-09 23:40:00,81.3,75.3,30.12,WSW,252,0.0,27.0,82,0.00,,,0.00,Wunderground v.1.15,2013-07-10 03:40:00,
2013-07-09 23:50:00,81.2,75.9,30.11,SW,219,0.0,27.0,84,0.00,,,0.00,Wunderground v.1.15,2013-07-10 03:50:00,
2013-07-09 23:55:00,81.2,75.9,30.11,WSW,238,1.0,27.0,84,0.00,,,0.00,Wunderground v.1.15,2013-07-10 03:55:00,